sensor_id;sensor_type;location;lat;lon;timestamp;temperature;humidity
50969;DHT22;36982;51.474;7.228;2022-08-19T00:00:47;19.20;99.90
50969;DHT22;36982;51.474;7.228;2022-08-19T00:03:15;19.20;99.90
50969;DHT22;36982;51.474;7.228;2022-08-19T00:05:41;19.20;99.90
50969;DHT22;36982;51.474;7.228;2022-08-19T00:08:07;19.10;99.90
50969;DHT22;36982;51.474;7.228;2022-08-19T00:10:33;19.20;99.90
50969;DHT22;36982;51.474;7.228;2022-08-19T00:12:59;19.10;99.90
50969;DHT22;36982;51.474;7.228;2022-08-19T00:15:25;19.10;99.90
50969;DHT22;36982;51.474;7.228;2022-08-19T00:17:50;19.00;99.90
50969;DHT22;36982;51.474;7.228;2022-08-19T00:20:20;19.00;99.90
50969;DHT22;36982;51.474;7.228;2022-08-19T00:22:46;19.10;99.90
50969;DHT22;36982;51.474;7.228;2022-08-19T00:25:14;19.00;99.90
50969;DHT22;36982;51.474;7.228;2022-08-19T00:27:40;19.00;99.90
50969;DHT22;36982;51.474;7.228;2022-08-19T00:30:07;19.10;99.90
50969;DHT22;36982;51.474;7.228;2022-08-19T00:32:35;19.00;99.90
50969;DHT22;36982;51.474;7.228;2022-08-19T00:35:01;18.80;99.90
50969;DHT22;36982;51.474;7.228;2022-08-19T00:37:27;18.80;99.90
50969;DHT22;36982;51.474;7.228;2022-08-19T00:39:53;18.90;99.90
50969;DHT22;36982;51.474;7.228;2022-08-19T00:42:20;18.80;99.90
50969;DHT22;36982;51.474;7.228;2022-08-19T00:44:46;18.80;99.90
50969;DHT22;36982;51.474;7.228;2022-08-19T00:47:12;19.00;99.90
50969;DHT22;36982;51.474;7.228;2022-08-19T00:49:44;18.90;99.90
50969;DHT22;36982;51.474;7.228;2022-08-19T00:52:18;18.80;99.90
50969;DHT22;36982;51.474;7.228;2022-08-19T00:54:45;18.70;99.90
50969;DHT22;36982;51.474;7.228;2022-08-19T00:57:18;18.60;99.90
50969;DHT22;36982;51.474;7.228;2022-08-19T00:59:47;18.60;99.90
50969;DHT22;36982;51.474;7.228;2022-08-19T01:02:15;18.70;99.90
50969;DHT22;36982;51.474;7.228;2022-08-19T01:04:40;18.60;99.90
50969;DHT22;36982;51.474;7.228;2022-08-19T01:07:07;18.60;99.90
50969;DHT22;36982;51.474;7.228;2022-08-19T01:09:33;18.60;99.90
50969;DHT22;36982;51.474;7.228;2022-08-19T01:12:00;18.60;99.90
50969;DHT22;36982;51.474;7.228;2022-08-19T01:14:26;18.60;99.90
50969;DHT22;36982;51.474;7.228;2022-08-19T01:16:53;18.60;99.90
50969;DHT22;36982;51.474;7.228;2022-08-19T01:19:29;18.60;99.90
50969;DHT22;36982;51.474;7.228;2022-08-19T01:22:08;18.60;99.90
50969;DHT22;36982;51.474;7.228;2022-08-19T01:24:36;18.60;99.90
50969;DHT22;36982;51.474;7.228;2022-08-19T01:27:05;18.60;99.90
50969;DHT22;36982;51.474;7.228;2022-08-19T01:29:31;18.50;99.90
50969;DHT22;36982;51.474;7.228;2022-08-19T01:31:57;18.50;99.90
50969;DHT22;36982;51.474;7.228;2022-08-19T01:34:23;18.50;99.90
50969;DHT22;36982;51.474;7.228;2022-08-19T01:36:49;18.60;99.90
50969;DHT22;36982;51.474;7.228;2022-08-19T01:39:20;18.60;99.90
50969;DHT22;36982;51.474;7.228;2022-08-19T01:41:47;18.60;99.90
50969;DHT22;36982;51.474;7.228;2022-08-19T01:44:13;18.50;99.90
50969;DHT22;36982;51.474;7.228;2022-08-19T01:46:40;18.50;99.90
50969;DHT22;36982;51.474;7.228;2022-08-19T01:49:06;18.50;99.90
50969;DHT22;36982;51.474;7.228;2022-08-19T01:51:33;18.50;99.90
50969;DHT22;36982;51.474;7.228;2022-08-19T01:53:59;18.50;99.90
50969;DHT22;36982;51.474;7.228;2022-08-19T01:56:25;18.50;99.90
50969;DHT22;36982;51.474;7.228;2022-08-19T01:59:06;18.50;99.90
50969;DHT22;36982;51.474;7.228;2022-08-19T02:01:33;18.60;99.90
50969;DHT22;36982;51.474;7.228;2022-08-19T02:04:00;18.40;99.90
50969;DHT22;36982;51.474;7.228;2022-08-19T02:06:26;18.40;99.90
50969;DHT22;36982;51.474;7.228;2022-08-19T02:08:52;18.40;99.90
50969;DHT22;36982;51.474;7.228;2022-08-19T02:11:30;18.20;99.90
50969;DHT22;36982;51.474;7.228;2022-08-19T02:13:57;18.20;99.90
50969;DHT22;36982;51.474;7.228;2022-08-19T02:16:23;18.20;99.90
50969;DHT22;36982;51.474;7.228;2022-08-19T02:18:49;18.20;99.90
50969;DHT22;36982;51.474;7.228;2022-08-19T02:21:17;18.10;99.90
50969;DHT22;36982;51.474;7.228;2022-08-19T02:23:43;18.20;99.90
50969;DHT22;36982;51.474;7.228;2022-08-19T02:26:10;18.30;99.90
50969;DHT22;36982;51.474;7.228;2022-08-19T02:28:36;18.30;99.90
50969;DHT22;36982;51.474;7.228;2022-08-19T02:31:02;18.20;99.90
50969;DHT22;36982;51.474;7.228;2022-08-19T02:33:28;18.20;99.90
50969;DHT22;36982;51.474;7.228;2022-08-19T02:35:54;18.10;99.90
50969;DHT22;36982;51.474;7.228;2022-08-19T02:38:19;18.20;99.90
50969;DHT22;36982;51.474;7.228;2022-08-19T02:40:53;18.10;99.90
50969;DHT22;36982;51.474;7.228;2022-08-19T02:43:19;18.00;99.90
50969;DHT22;36982;51.474;7.228;2022-08-19T02:45:49;18.00;99.90
50969;DHT22;36982;51.474;7.228;2022-08-19T02:48:22;18.00;99.90
50969;DHT22;36982;51.474;7.228;2022-08-19T02:50:51;18.00;99.90
50969;DHT22;36982;51.474;7.228;2022-08-19T02:53:21;18.10;99.90
50969;DHT22;36982;51.474;7.228;2022-08-19T02:55:48;18.00;99.90
50969;DHT22;36982;51.474;7.228;2022-08-19T02:58:14;18.00;99.90
50969;DHT22;36982;51.474;7.228;2022-08-19T03:00:42;18.10;99.90
50969;DHT22;36982;51.474;7.228;2022-08-19T03:03:09;18.20;99.90
50969;DHT22;36982;51.474;7.228;2022-08-19T03:05:34;18.30;99.90
50969;DHT22;36982;51.474;7.228;2022-08-19T03:08:00;18.20;99.90
50969;DHT22;36982;51.474;7.228;2022-08-19T03:10:25;18.20;99.90
50969;DHT22;36982;51.474;7.228;2022-08-19T03:12:51;18.00;99.90
50969;DHT22;36982;51.474;7.228;2022-08-19T03:15:17;17.90;99.90
50969;DHT22;36982;51.474;7.228;2022-08-19T03:17:42;18.00;99.90
50969;DHT22;36982;51.474;7.228;2022-08-19T03:20:08;17.90;99.90
50969;DHT22;36982;51.474;7.228;2022-08-19T03:22:34;17.90;99.90
50969;DHT22;36982;51.474;7.228;2022-08-19T03:24:59;17.80;99.90
50969;DHT22;36982;51.474;7.228;2022-08-19T03:27:25;17.80;99.90
50969;DHT22;36982;51.474;7.228;2022-08-19T03:29:50;17.90;99.90
50969;DHT22;36982;51.474;7.228;2022-08-19T03:32:16;17.90;99.90
50969;DHT22;36982;51.474;7.228;2022-08-19T03:34:42;18.00;99.90
50969;DHT22;36982;51.474;7.228;2022-08-19T03:37:10;17.90;99.90
50969;DHT22;36982;51.474;7.228;2022-08-19T03:39:39;17.90;99.90
50969;DHT22;36982;51.474;7.228;2022-08-19T03:42:05;17.90;99.90
50969;DHT22;36982;51.474;7.228;2022-08-19T03:44:31;17.90;99.90
50969;DHT22;36982;51.474;7.228;2022-08-19T03:47:03;18.00;99.90
50969;DHT22;36982;51.474;7.228;2022-08-19T03:49:30;17.90;99.90
50969;DHT22;36982;51.474;7.228;2022-08-19T03:51:57;17.90;99.90
50969;DHT22;36982;51.474;7.228;2022-08-19T03:54:25;18.00;99.90
50969;DHT22;36982;51.474;7.228;2022-08-19T03:56:53;17.90;99.90
50969;DHT22;36982;51.474;7.228;2022-08-19T03:59:26;18.00;99.90
50969;DHT22;36982;51.474;7.228;2022-08-19T04:01:58;17.90;99.90
50969;DHT22;36982;51.474;7.228;2022-08-19T04:04:24;17.80;99.90
50969;DHT22;36982;51.474;7.228;2022-08-19T04:06:51;17.80;99.90
50969;DHT22;36982;51.474;7.228;2022-08-19T04:09:18;17.90;99.90
50969;DHT22;36982;51.474;7.228;2022-08-19T04:11:50;17.70;99.90
50969;DHT22;36982;51.474;7.228;2022-08-19T04:14:21;17.90;99.90
50969;DHT22;36982;51.474;7.228;2022-08-19T04:16:47;17.80;99.90
50969;DHT22;36982;51.474;7.228;2022-08-19T04:19:15;17.80;99.90
50969;DHT22;36982;51.474;7.228;2022-08-19T04:21:43;18.00;99.90
50969;DHT22;36982;51.474;7.228;2022-08-19T04:24:10;17.90;99.90
50969;DHT22;36982;51.474;7.228;2022-08-19T04:26:36;17.80;99.90
50969;DHT22;36982;51.474;7.228;2022-08-19T04:29:23;17.90;99.90
50969;DHT22;36982;51.474;7.228;2022-08-19T04:31:52;17.90;99.90
50969;DHT22;36982;51.474;7.228;2022-08-19T04:34:20;17.80;99.90
50969;DHT22;36982;51.474;7.228;2022-08-19T04:36:48;17.90;99.90
50969;DHT22;36982;51.474;7.228;2022-08-19T04:39:18;17.80;99.90
50969;DHT22;36982;51.474;7.228;2022-08-19T04:41:45;17.70;99.90
50969;DHT22;36982;51.474;7.228;2022-08-19T04:44:34;17.80;99.90
50969;DHT22;36982;51.474;7.228;2022-08-19T04:47:00;18.00;99.90
50969;DHT22;36982;51.474;7.228;2022-08-19T04:49:26;17.80;99.90
50969;DHT22;36982;51.474;7.228;2022-08-19T04:51:53;17.90;99.90
50969;DHT22;36982;51.474;7.228;2022-08-19T04:54:20;18.00;99.90
50969;DHT22;36982;51.474;7.228;2022-08-19T04:56:48;18.10;99.90
50969;DHT22;36982;51.474;7.228;2022-08-19T04:59:15;18.20;99.90
50969;DHT22;36982;51.474;7.228;2022-08-19T05:01:43;18.30;99.90
50969;DHT22;36982;51.474;7.228;2022-08-19T05:04:08;18.30;99.90
50969;DHT22;36982;51.474;7.228;2022-08-19T05:06:35;18.40;99.90
50969;DHT22;36982;51.474;7.228;2022-08-19T05:09:03;18.40;99.90
50969;DHT22;36982;51.474;7.228;2022-08-19T05:11:34;18.40;99.90
50969;DHT22;36982;51.474;7.228;2022-08-19T05:14:01;18.50;99.90
50969;DHT22;36982;51.474;7.228;2022-08-19T05:16:27;18.60;99.90
50969;DHT22;36982;51.474;7.228;2022-08-19T05:18:54;18.60;99.90
50969;DHT22;36982;51.474;7.228;2022-08-19T05:21:40;18.80;99.90
50969;DHT22;36982;51.474;7.228;2022-08-19T05:24:25;18.80;99.90
50969;DHT22;36982;51.474;7.228;2022-08-19T05:26:52;18.80;99.90
50969;DHT22;36982;51.474;7.228;2022-08-19T05:29:20;18.60;99.90
50969;DHT22;36982;51.474;7.228;2022-08-19T05:31:47;18.80;99.90
50969;DHT22;36982;51.474;7.228;2022-08-19T05:34:15;18.70;99.90
50969;DHT22;36982;51.474;7.228;2022-08-19T05:36:42;18.90;99.90
50969;DHT22;36982;51.474;7.228;2022-08-19T05:39:15;19.00;99.90
50969;DHT22;36982;51.474;7.228;2022-08-19T05:41:46;19.20;99.90
50969;DHT22;36982;51.474;7.228;2022-08-19T05:44:12;19.40;99.90
50969;DHT22;36982;51.474;7.228;2022-08-19T05:46:39;19.60;99.90
50969;DHT22;36982;51.474;7.228;2022-08-19T05:49:06;19.80;99.90
50969;DHT22;36982;51.474;7.228;2022-08-19T05:51:34;20.00;99.90
50969;DHT22;36982;51.474;7.228;2022-08-19T05:54:02;20.30;99.90
50969;DHT22;36982;51.474;7.228;2022-08-19T05:56:28;20.40;99.90
50969;DHT22;36982;51.474;7.228;2022-08-19T05:58:56;20.70;99.90
50969;DHT22;36982;51.474;7.228;2022-08-19T06:01:24;20.90;99.90
50969;DHT22;36982;51.474;7.228;2022-08-19T06:03:50;21.20;99.90
50969;DHT22;36982;51.474;7.228;2022-08-19T06:06:16;21.50;99.90
50969;DHT22;36982;51.474;7.228;2022-08-19T06:08:43;21.70;99.90
50969;DHT22;36982;51.474;7.228;2022-08-19T06:11:23;21.90;99.90
50969;DHT22;36982;51.474;7.228;2022-08-19T06:13:52;22.00;99.90
50969;DHT22;36982;51.474;7.228;2022-08-19T06:16:19;22.00;99.90
50969;DHT22;36982;51.474;7.228;2022-08-19T06:18:52;22.20;99.90
50969;DHT22;36982;51.474;7.228;2022-08-19T06:21:22;22.20;99.90
50969;DHT22;36982;51.474;7.228;2022-08-19T06:23:49;21.60;99.90
50969;DHT22;36982;51.474;7.228;2022-08-19T06:26:17;21.30;99.90
50969;DHT22;36982;51.474;7.228;2022-08-19T06:28:44;21.30;99.90
50969;DHT22;36982;51.474;7.228;2022-08-19T06:31:13;21.50;99.90
50969;DHT22;36982;51.474;7.228;2022-08-19T06:33:40;21.60;99.90
50969;DHT22;36982;51.474;7.228;2022-08-19T06:36:07;21.90;99.90
50969;DHT22;36982;51.474;7.228;2022-08-19T06:38:33;21.80;99.90
50969;DHT22;36982;51.474;7.228;2022-08-19T06:41:05;21.90;99.90
50969;DHT22;36982;51.474;7.228;2022-08-19T06:43:31;21.90;99.90
50969;DHT22;36982;51.474;7.228;2022-08-19T06:45:56;21.80;99.90
50969;DHT22;36982;51.474;7.228;2022-08-19T06:48:22;21.90;99.90
50969;DHT22;36982;51.474;7.228;2022-08-19T06:50:48;21.80;99.90
50969;DHT22;36982;51.474;7.228;2022-08-19T06:53:15;21.50;99.90
50969;DHT22;36982;51.474;7.228;2022-08-19T06:55:41;21.40;99.90
50969;DHT22;36982;51.474;7.228;2022-08-19T06:58:06;21.30;99.90
50969;DHT22;36982;51.474;7.228;2022-08-19T07:00:32;21.40;99.90
50969;DHT22;36982;51.474;7.228;2022-08-19T07:02:58;21.40;99.90
50969;DHT22;36982;51.474;7.228;2022-08-19T07:05:24;21.60;99.90
50969;DHT22;36982;51.474;7.228;2022-08-19T07:07:49;21.60;99.90
50969;DHT22;36982;51.474;7.228;2022-08-19T07:10:15;21.50;99.90
50969;DHT22;36982;51.474;7.228;2022-08-19T07:12:41;21.40;99.90
50969;DHT22;36982;51.474;7.228;2022-08-19T07:15:07;21.20;99.90
50969;DHT22;36982;51.474;7.228;2022-08-19T07:17:35;21.20;99.90
50969;DHT22;36982;51.474;7.228;2022-08-19T07:20:03;21.40;99.90
50969;DHT22;36982;51.474;7.228;2022-08-19T07:22:29;21.50;99.90
50969;DHT22;36982;51.474;7.228;2022-08-19T07:24:54;21.50;99.90
50969;DHT22;36982;51.474;7.228;2022-08-19T07:27:20;21.60;99.90
50969;DHT22;36982;51.474;7.228;2022-08-19T07:29:45;21.60;99.90
50969;DHT22;36982;51.474;7.228;2022-08-19T07:32:11;21.60;99.90
50969;DHT22;36982;51.474;7.228;2022-08-19T07:34:37;21.60;99.90
50969;DHT22;36982;51.474;7.228;2022-08-19T07:37:06;21.80;99.90
50969;DHT22;36982;51.474;7.228;2022-08-19T07:39:35;21.80;99.90
50969;DHT22;36982;51.474;7.228;2022-08-19T07:42:04;21.90;99.90
50969;DHT22;36982;51.474;7.228;2022-08-19T07:44:29;22.00;99.90
50969;DHT22;36982;51.474;7.228;2022-08-19T07:46:56;22.10;99.90
50969;DHT22;36982;51.474;7.228;2022-08-19T07:49:23;22.10;99.90
50969;DHT22;36982;51.474;7.228;2022-08-19T07:52:05;22.30;99.90
50969;DHT22;36982;51.474;7.228;2022-08-19T07:54:33;22.30;99.90
50969;DHT22;36982;51.474;7.228;2022-08-19T07:57:00;22.40;99.90
50969;DHT22;36982;51.474;7.228;2022-08-19T07:59:26;22.50;99.90
50969;DHT22;36982;51.474;7.228;2022-08-19T08:01:52;22.50;99.90
50969;DHT22;36982;51.474;7.228;2022-08-19T08:04:18;22.30;99.90
50969;DHT22;36982;51.474;7.228;2022-08-19T08:07:08;22.30;99.90
50969;DHT22;36982;51.474;7.228;2022-08-19T08:09:52;22.40;99.90
50969;DHT22;36982;51.474;7.228;2022-08-19T08:12:22;22.50;99.90
50969;DHT22;36982;51.474;7.228;2022-08-19T08:15:01;22.70;99.90
50969;DHT22;36982;51.474;7.228;2022-08-19T08:17:29;22.60;99.90
50969;DHT22;36982;51.474;7.228;2022-08-19T08:19:55;22.60;99.90
50969;DHT22;36982;51.474;7.228;2022-08-19T08:22:22;22.70;99.90
50969;DHT22;36982;51.474;7.228;2022-08-19T08:25:16;22.90;99.90
50969;DHT22;36982;51.474;7.228;2022-08-19T08:27:44;23.00;99.90
50969;DHT22;36982;51.474;7.228;2022-08-19T08:30:16;23.10;99.90
50969;DHT22;36982;51.474;7.228;2022-08-19T08:32:42;23.10;99.90
50969;DHT22;36982;51.474;7.228;2022-08-19T08:35:11;23.30;99.90
50969;DHT22;36982;51.474;7.228;2022-08-19T08:37:38;23.40;99.90
50969;DHT22;36982;51.474;7.228;2022-08-19T08:40:09;23.50;99.90
50969;DHT22;36982;51.474;7.228;2022-08-19T08:42:46;23.50;99.90
50969;DHT22;36982;51.474;7.228;2022-08-19T08:45:17;23.40;99.90
50969;DHT22;36982;51.474;7.228;2022-08-19T08:47:45;23.50;99.90
50969;DHT22;36982;51.474;7.228;2022-08-19T08:50:39;23.60;99.90
50969;DHT22;36982;51.474;7.228;2022-08-19T08:53:07;23.60;99.90
50969;DHT22;36982;51.474;7.228;2022-08-19T08:55:34;23.40;99.90
50969;DHT22;36982;51.474;7.228;2022-08-19T08:58:04;23.30;99.90
50969;DHT22;36982;51.474;7.228;2022-08-19T09:00:35;23.20;99.90
50969;DHT22;36982;51.474;7.228;2022-08-19T09:03:03;23.20;99.90
50969;DHT22;36982;51.474;7.228;2022-08-19T09:06:02;23.30;99.90
50969;DHT22;36982;51.474;7.228;2022-08-19T09:14:34;23.30;99.90
50969;DHT22;36982;51.474;7.228;2022-08-19T09:17:01;23.50;99.90
50969;DHT22;36982;51.474;7.228;2022-08-19T09:19:34;23.60;99.90
50969;DHT22;36982;51.474;7.228;2022-08-19T09:21:59;23.80;99.90
50969;DHT22;36982;51.474;7.228;2022-08-19T09:24:26;23.70;99.90
50969;DHT22;36982;51.474;7.228;2022-08-19T09:26:51;23.80;99.90
50969;DHT22;36982;51.474;7.228;2022-08-19T09:29:17;24.00;99.90
50969;DHT22;36982;51.474;7.228;2022-08-19T09:31:43;24.00;99.90
50969;DHT22;36982;51.474;7.228;2022-08-19T09:34:09;24.20;99.90
50969;DHT22;36982;51.474;7.228;2022-08-19T09:36:34;24.20;99.90
50969;DHT22;36982;51.474;7.228;2022-08-19T09:39:05;24.40;99.90
50969;DHT22;36982;51.474;7.228;2022-08-19T09:41:31;24.40;99.90
50969;DHT22;36982;51.474;7.228;2022-08-19T09:43:58;24.60;99.90
50969;DHT22;36982;51.474;7.228;2022-08-19T09:46:26;24.70;99.90
50969;DHT22;36982;51.474;7.228;2022-08-19T09:48:53;24.60;99.90
50969;DHT22;36982;51.474;7.228;2022-08-19T09:51:22;24.50;99.90
50969;DHT22;36982;51.474;7.228;2022-08-19T09:53:49;24.70;99.90
50969;DHT22;36982;51.474;7.228;2022-08-19T09:56:17;24.80;99.90
50969;DHT22;36982;51.474;7.228;2022-08-19T09:58:43;24.90;99.90
50969;DHT22;36982;51.474;7.228;2022-08-19T10:01:19;24.90;99.90
50969;DHT22;36982;51.474;7.228;2022-08-19T10:03:51;24.80;99.90
50969;DHT22;36982;51.474;7.228;2022-08-19T10:06:19;24.70;99.90
50969;DHT22;36982;51.474;7.228;2022-08-19T10:08:45;24.60;99.90
50969;DHT22;36982;51.474;7.228;2022-08-19T10:11:11;24.60;99.90
50969;DHT22;36982;51.474;7.228;2022-08-19T10:13:40;24.50;99.90
50969;DHT22;36982;51.474;7.228;2022-08-19T10:16:09;24.50;99.90
50969;DHT22;36982;51.474;7.228;2022-08-19T10:18:36;24.70;99.90
50969;DHT22;36982;51.474;7.228;2022-08-19T10:21:23;24.80;99.90
50969;DHT22;36982;51.474;7.228;2022-08-19T10:23:52;24.70;99.90
50969;DHT22;36982;51.474;7.228;2022-08-19T10:26:21;24.80;99.90
50969;DHT22;36982;51.474;7.228;2022-08-19T10:28:47;24.80;99.90
50969;DHT22;36982;51.474;7.228;2022-08-19T10:31:19;24.80;99.90
50969;DHT22;36982;51.474;7.228;2022-08-19T10:33:46;25.00;99.90
50969;DHT22;36982;51.474;7.228;2022-08-19T10:36:18;25.00;99.90
50969;DHT22;36982;51.474;7.228;2022-08-19T10:38:46;25.10;99.90
50969;DHT22;36982;51.474;7.228;2022-08-19T10:41:18;24.90;99.90
50969;DHT22;36982;51.474;7.228;2022-08-19T10:43:44;24.70;99.90
50969;DHT22;36982;51.474;7.228;2022-08-19T10:46:13;24.80;99.90
50969;DHT22;36982;51.474;7.228;2022-08-19T10:48:39;24.80;99.90
50969;DHT22;36982;51.474;7.228;2022-08-19T10:51:05;24.80;99.80
50969;DHT22;36982;51.474;7.228;2022-08-19T10:53:50;24.60;99.90
50969;DHT22;36982;51.474;7.228;2022-08-19T10:56:17;24.60;99.90
50969;DHT22;36982;51.474;7.228;2022-08-19T10:59:01;24.60;99.90
50969;DHT22;36982;51.474;7.228;2022-08-19T11:01:29;24.70;99.90
50969;DHT22;36982;51.474;7.228;2022-08-19T11:03:55;24.90;99.90
50969;DHT22;36982;51.474;7.228;2022-08-19T11:06:23;25.00;99.90
50969;DHT22;36982;51.474;7.228;2022-08-19T11:08:50;24.90;99.90
50969;DHT22;36982;51.474;7.228;2022-08-19T11:11:16;24.90;99.90
50969;DHT22;36982;51.474;7.228;2022-08-19T11:13:43;24.70;99.90
50969;DHT22;36982;51.474;7.228;2022-08-19T11:16:13;24.80;99.90
50969;DHT22;36982;51.474;7.228;2022-08-19T11:18:42;24.80;99.90
50969;DHT22;36982;51.474;7.228;2022-08-19T11:21:20;24.90;99.90
50969;DHT22;36982;51.474;7.228;2022-08-19T11:23:49;24.80;99.90
50969;DHT22;36982;51.474;7.228;2022-08-19T11:26:16;24.90;99.90
50969;DHT22;36982;51.474;7.228;2022-08-19T11:28:42;25.00;99.90
50969;DHT22;36982;51.474;7.228;2022-08-19T11:31:16;24.90;99.90
50969;DHT22;36982;51.474;7.228;2022-08-19T11:33:43;24.80;99.90
50969;DHT22;36982;51.474;7.228;2022-08-19T11:36:09;24.90;99.90
50969;DHT22;36982;51.474;7.228;2022-08-19T11:38:36;24.70;99.90
50969;DHT22;36982;51.474;7.228;2022-08-19T11:41:04;24.90;99.90
50969;DHT22;36982;51.474;7.228;2022-08-19T11:43:31;24.90;99.90
50969;DHT22;36982;51.474;7.228;2022-08-19T11:45:57;25.00;99.50
50969;DHT22;36982;51.474;7.228;2022-08-19T11:48:23;24.90;99.20
50969;DHT22;36982;51.474;7.228;2022-08-19T11:50:50;24.90;99.10
50969;DHT22;36982;51.474;7.228;2022-08-19T11:53:17;25.00;99.30
50969;DHT22;36982;51.474;7.228;2022-08-19T11:55:43;25.00;99.20
50969;DHT22;36982;51.474;7.228;2022-08-19T11:58:10;25.00;99.20
50969;DHT22;36982;51.474;7.228;2022-08-19T12:00:38;25.10;99.10
50969;DHT22;36982;51.474;7.228;2022-08-19T12:03:03;24.90;99.50
50969;DHT22;36982;51.474;7.228;2022-08-19T12:05:29;24.90;99.60
50969;DHT22;36982;51.474;7.228;2022-08-19T12:07:55;24.80;98.90
50969;DHT22;36982;51.474;7.228;2022-08-19T12:10:22;24.90;99.60
50969;DHT22;36982;51.474;7.228;2022-08-19T12:12:48;25.00;99.10
50969;DHT22;36982;51.474;7.228;2022-08-19T12:15:14;25.20;98.40
50969;DHT22;36982;51.474;7.228;2022-08-19T12:17:41;25.30;97.90
50969;DHT22;36982;51.474;7.228;2022-08-19T12:20:09;25.40;98.10
50969;DHT22;36982;51.474;7.228;2022-08-19T12:22:36;25.30;97.90
50969;DHT22;36982;51.474;7.228;2022-08-19T12:25:04;25.20;98.00
50969;DHT22;36982;51.474;7.228;2022-08-19T12:27:30;25.20;97.80
50969;DHT22;36982;51.474;7.228;2022-08-19T12:29:56;25.30;97.70
50969;DHT22;36982;51.474;7.228;2022-08-19T12:32:22;25.20;97.60
50969;DHT22;36982;51.474;7.228;2022-08-19T12:34:48;25.20;97.80
50969;DHT22;36982;51.474;7.228;2022-08-19T12:37:13;25.40;97.50
50969;DHT22;36982;51.474;7.228;2022-08-19T12:39:41;25.50;96.80
50969;DHT22;36982;51.474;7.228;2022-08-19T12:42:11;25.60;96.40
50969;DHT22;36982;51.474;7.228;2022-08-19T12:44:38;25.60;95.80
50969;DHT22;36982;51.474;7.228;2022-08-19T12:47:05;25.50;96.10
50969;DHT22;36982;51.474;7.228;2022-08-19T12:49:37;25.40;95.60
50969;DHT22;36982;51.474;7.228;2022-08-19T12:52:05;25.40;95.90
50969;DHT22;36982;51.474;7.228;2022-08-19T12:54:31;25.40;95.80
50969;DHT22;36982;51.474;7.228;2022-08-19T12:56:57;25.50;95.80
50969;DHT22;36982;51.474;7.228;2022-08-19T12:59:25;25.50;95.90
50969;DHT22;36982;51.474;7.228;2022-08-19T13:01:50;25.70;95.60
50969;DHT22;36982;51.474;7.228;2022-08-19T13:04:16;25.60;95.60
50969;DHT22;36982;51.474;7.228;2022-08-19T13:06:44;25.80;95.30
50969;DHT22;36982;51.474;7.228;2022-08-19T13:09:10;25.70;95.40
50969;DHT22;36982;51.474;7.228;2022-08-19T13:11:37;25.70;95.70
50969;DHT22;36982;51.474;7.228;2022-08-19T13:14:03;25.80;95.40
50969;DHT22;36982;51.474;7.228;2022-08-19T13:16:29;25.90;95.00
50969;DHT22;36982;51.474;7.228;2022-08-19T13:18:56;26.00;95.20
50969;DHT22;36982;51.474;7.228;2022-08-19T13:21:24;26.10;94.70
50969;DHT22;36982;51.474;7.228;2022-08-19T13:23:50;26.10;94.60
50969;DHT22;36982;51.474;7.228;2022-08-19T13:26:17;26.10;94.80
50969;DHT22;36982;51.474;7.228;2022-08-19T13:28:43;26.20;94.50
50969;DHT22;36982;51.474;7.228;2022-08-19T13:31:30;26.10;94.30
50969;DHT22;36982;51.474;7.228;2022-08-19T13:34:16;26.00;94.70
50969;DHT22;36982;51.474;7.228;2022-08-19T13:36:42;25.80;94.60
50969;DHT22;36982;51.474;7.228;2022-08-19T13:39:08;25.70;95.10
50969;DHT22;36982;51.474;7.228;2022-08-19T13:41:35;25.70;94.90
50969;DHT22;36982;51.474;7.228;2022-08-19T13:44:08;25.60;94.30
50969;DHT22;36982;51.474;7.228;2022-08-19T13:46:34;25.60;94.20
50969;DHT22;36982;51.474;7.228;2022-08-19T13:48:59;25.50;94.30
50969;DHT22;36982;51.474;7.228;2022-08-19T13:51:25;25.50;94.40
50969;DHT22;36982;51.474;7.228;2022-08-19T13:53:51;25.40;94.40
50969;DHT22;36982;51.474;7.228;2022-08-19T13:56:18;25.40;94.40
50969;DHT22;36982;51.474;7.228;2022-08-19T13:58:45;25.30;93.90
50969;DHT22;36982;51.474;7.228;2022-08-19T14:01:11;25.20;94.10
50969;DHT22;36982;51.474;7.228;2022-08-19T14:03:53;25.20;94.30
50969;DHT22;36982;51.474;7.228;2022-08-19T14:06:19;25.30;94.40
50969;DHT22;36982;51.474;7.228;2022-08-19T14:08:46;25.40;94.40
50969;DHT22;36982;51.474;7.228;2022-08-19T14:11:12;25.50;94.20
50969;DHT22;36982;51.474;7.228;2022-08-19T14:13:38;25.50;93.90
50969;DHT22;36982;51.474;7.228;2022-08-19T14:16:09;25.50;94.10
50969;DHT22;36982;51.474;7.228;2022-08-19T14:18:38;25.50;94.10
50969;DHT22;36982;51.474;7.228;2022-08-19T14:21:05;25.70;93.70
50969;DHT22;36982;51.474;7.228;2022-08-19T14:23:31;25.80;93.90
50969;DHT22;36982;51.474;7.228;2022-08-19T14:26:06;25.80;93.50
50969;DHT22;36982;51.474;7.228;2022-08-19T14:28:32;25.70;93.60
50969;DHT22;36982;51.474;7.228;2022-08-19T14:30:57;25.70;93.30
50969;DHT22;36982;51.474;7.228;2022-08-19T14:33:23;25.80;93.60
50969;DHT22;36982;51.474;7.228;2022-08-19T14:35:48;25.70;93.30
50969;DHT22;36982;51.474;7.228;2022-08-19T14:38:19;25.80;93.40
50969;DHT22;36982;51.474;7.228;2022-08-19T14:40:45;25.70;93.40
50969;DHT22;36982;51.474;7.228;2022-08-19T14:43:13;25.70;93.50
50969;DHT22;36982;51.474;7.228;2022-08-19T14:45:39;25.80;93.10
50969;DHT22;36982;51.474;7.228;2022-08-19T14:48:06;25.70;93.30
50969;DHT22;36982;51.474;7.228;2022-08-19T14:50:33;25.70;93.20
50969;DHT22;36982;51.474;7.228;2022-08-19T14:53:06;25.60;93.20
50969;DHT22;36982;51.474;7.228;2022-08-19T14:55:32;25.70;93.50
50969;DHT22;36982;51.474;7.228;2022-08-19T14:57:58;25.80;94.00
50969;DHT22;36982;51.474;7.228;2022-08-19T15:00:24;25.90;93.30
50969;DHT22;36982;51.474;7.228;2022-08-19T15:02:50;26.00;93.40
50969;DHT22;36982;51.474;7.228;2022-08-19T15:05:16;26.10;93.60
50969;DHT22;36982;51.474;7.228;2022-08-19T15:07:43;26.20;93.30
50969;DHT22;36982;51.474;7.228;2022-08-19T15:10:10;26.30;93.10
50969;DHT22;36982;51.474;7.228;2022-08-19T15:12:36;26.30;92.60
50969;DHT22;36982;51.474;7.228;2022-08-19T15:15:09;26.50;92.40
50969;DHT22;36982;51.474;7.228;2022-08-19T15:17:38;26.60;92.60
50969;DHT22;36982;51.474;7.228;2022-08-19T15:20:06;26.60;92.30
50969;DHT22;36982;51.474;7.228;2022-08-19T15:22:32;26.60;92.40
50969;DHT22;36982;51.474;7.228;2022-08-19T15:24:58;26.60;92.10
50969;DHT22;36982;51.474;7.228;2022-08-19T15:27:23;26.50;91.60
50969;DHT22;36982;51.474;7.228;2022-08-19T15:30:04;26.40;91.90
50969;DHT22;36982;51.474;7.228;2022-08-19T15:32:30;26.30;91.90
50969;DHT22;36982;51.474;7.228;2022-08-19T15:34:55;26.20;92.00
50969;DHT22;36982;51.474;7.228;2022-08-19T15:37:21;26.10;92.30
50969;DHT22;36982;51.474;7.228;2022-08-19T15:39:48;26.00;92.30
50969;DHT22;36982;51.474;7.228;2022-08-19T15:42:14;26.00;92.30